sensor_id;sensor_type;location;lat;lon;timestamp;P1;durP1;ratioP1;P2;durP2;ratioP2
15635;SDS011;7917;50.818;6.972;2024-01-16T00:01:05;15.20;;;8.48;;
15635;SDS011;7917;50.818;6.972;2024-01-16T00:03:31;14.80;;;8.68;;
15635;SDS011;7917;50.818;6.972;2024-01-16T00:06:00;12.90;;;8.52;;
15635;SDS011;7917;50.818;6.972;2024-01-16T00:08:26;18.02;;;8.77;;
15635;SDS011;7917;50.818;6.972;2024-01-16T00:10:53;16.20;;;8.77;;
15635;SDS011;7917;50.818;6.972;2024-01-16T00:13:19;17.67;;;8.57;;
15635;SDS011;7917;50.818;6.972;2024-01-16T00:15:46;21.02;;;9.60;;
15635;SDS011;7917;50.818;6.972;2024-01-16T00:18:15;20.60;;;9.23;;
15635;SDS011;7917;50.818;6.972;2024-01-16T00:20:43;26.20;;;9.45;;
15635;SDS011;7917;50.818;6.972;2024-01-16T00:23:09;18.75;;;8.43;;
15635;SDS011;7917;50.818;6.972;2024-01-16T00:25:35;17.05;;;8.82;;
15635;SDS011;7917;50.818;6.972;2024-01-16T00:28:03;16.65;;;8.63;;
15635;SDS011;7917;50.818;6.972;2024-01-16T00:30:30;14.57;;;8.88;;
15635;SDS011;7917;50.818;6.972;2024-01-16T00:32:57;12.98;;;8.50;;
15635;SDS011;7917;50.818;6.972;2024-01-16T00:35:24;17.92;;;7.75;;
15635;SDS011;7917;50.818;6.972;2024-01-16T00:37:51;17.38;;;8.60;;
15635;SDS011;7917;50.818;6.972;2024-01-16T00:40:17;15.60;;;8.05;;
15635;SDS011;7917;50.818;6.972;2024-01-16T00:42:44;14.00;;;7.72;;
15635;SDS011;7917;50.818;6.972;2024-01-16T00:45:10;15.25;;;8.15;;
15635;SDS011;7917;50.818;6.972;2024-01-16T00:47:36;15.18;;;8.25;;
15635;SDS011;7917;50.818;6.972;2024-01-16T00:50:03;14.23;;;6.93;;
15635;SDS011;7917;50.818;6.972;2024-01-16T00:52:32;12.95;;;7.93;;
15635;SDS011;7917;50.818;6.972;2024-01-16T00:54:58;24.55;;;9.10;;
15635;SDS011;7917;50.818;6.972;2024-01-16T00:57:27;15.18;;;8.02;;
15635;SDS011;7917;50.818;6.972;2024-01-16T00:59:54;18.00;;;8.35;;
15635;SDS011;7917;50.818;6.972;2024-01-16T01:02:20;13.15;;;7.85;;
15635;SDS011;7917;50.818;6.972;2024-01-16T01:04:46;14.25;;;8.45;;
15635;SDS011;7917;50.818;6.972;2024-01-16T01:07:13;13.57;;;7.15;;
15635;SDS011;7917;50.818;6.972;2024-01-16T01:09:41;15.88;;;7.70;;
15635;SDS011;7917;50.818;6.972;2024-01-16T01:12:08;20.08;;;7.80;;
15635;SDS011;7917;50.818;6.972;2024-01-16T01:14:35;14.50;;;7.50;;
15635;SDS011;7917;50.818;6.972;2024-01-16T01:17:02;16.38;;;7.75;;
15635;SDS011;7917;50.818;6.972;2024-01-16T01:19:32;15.82;;;7.65;;
15635;SDS011;7917;50.818;6.972;2024-01-16T01:21:58;12.00;;;7.28;;
15635;SDS011;7917;50.818;6.972;2024-01-16T01:24:26;14.43;;;7.45;;
15635;SDS011;7917;50.818;6.972;2024-01-16T01:26:53;17.42;;;7.18;;
15635;SDS011;7917;50.818;6.972;2024-01-16T01:29:19;15.27;;;8.05;;
15635;SDS011;7917;50.818;6.972;2024-01-16T01:31:46;10.55;;;6.68;;
15635;SDS011;7917;50.818;6.972;2024-01-16T01:34:13;13.82;;;6.53;;
15635;SDS011;7917;50.818;6.972;2024-01-16T01:36:40;17.33;;;6.53;;
15635;SDS011;7917;50.818;6.972;2024-01-16T01:39:08;13.00;;;7.28;;
15635;SDS011;7917;50.818;6.972;2024-01-16T01:41:34;13.88;;;6.78;;
15635;SDS011;7917;50.818;6.972;2024-01-16T01:44:02;14.70;;;6.65;;
15635;SDS011;7917;50.818;6.972;2024-01-16T01:46:29;9.93;;;7.00;;
15635;SDS011;7917;50.818;6.972;2024-01-16T01:49:00;14.70;;;6.53;;
15635;SDS011;7917;50.818;6.972;2024-01-16T01:51:26;12.27;;;6.05;;
15635;SDS011;7917;50.818;6.972;2024-01-16T01:53:54;14.93;;;6.35;;
15635;SDS011;7917;50.818;6.972;2024-01-16T01:56:20;12.82;;;6.85;;
15635;SDS011;7917;50.818;6.972;2024-01-16T01:58:48;12.13;;;7.53;;
15635;SDS011;7917;50.818;6.972;2024-01-16T02:01:18;18.30;;;7.97;;
15635;SDS011;7917;50.818;6.972;2024-01-16T02:03:45;13.88;;;7.32;;
15635;SDS011;7917;50.818;6.972;2024-01-16T02:06:13;12.85;;;7.53;;
15635;SDS011;7917;50.818;6.972;2024-01-16T02:08:41;15.02;;;7.65;;
15635;SDS011;7917;50.818;6.972;2024-01-16T02:11:08;19.45;;;8.60;;
15635;SDS011;7917;50.818;6.972;2024-01-16T02:13:34;13.02;;;7.68;;
15635;SDS011;7917;50.818;6.972;2024-01-16T02:16:01;13.43;;;7.70;;
15635;SDS011;7917;50.818;6.972;2024-01-16T02:18:30;16.85;;;8.45;;
15635;SDS011;7917;50.818;6.972;2024-01-16T02:20:57;20.63;;;9.60;;
15635;SDS011;7917;50.818;6.972;2024-01-16T02:23:27;17.95;;;8.60;;
15635;SDS011;7917;50.818;6.972;2024-01-16T02:25:54;16.77;;;8.60;;
15635;SDS011;7917;50.818;6.972;2024-01-16T02:28:21;19.35;;;8.52;;
15635;SDS011;7917;50.818;6.972;2024-01-16T02:30:47;13.45;;;7.50;;
15635;SDS011;7917;50.818;6.972;2024-01-16T02:33:14;17.35;;;8.40;;
15635;SDS011;7917;50.818;6.972;2024-01-16T02:35:41;25.63;;;9.15;;
15635;SDS011;7917;50.818;6.972;2024-01-16T02:38:08;17.73;;;8.98;;
15635;SDS011;7917;50.818;6.972;2024-01-16T02:40:35;23.63;;;9.40;;
15635;SDS011;7917;50.818;6.972;2024-01-16T02:43:01;21.98;;;9.43;;
15635;SDS011;7917;50.818;6.972;2024-01-16T02:45:28;22.23;;;8.00;;
15635;SDS011;7917;50.818;6.972;2024-01-16T02:47:54;20.23;;;8.60;;
15635;SDS011;7917;50.818;6.972;2024-01-16T02:50:20;21.02;;;8.20;;
15635;SDS011;7917;50.818;6.972;2024-01-16T02:52:47;17.23;;;8.35;;
15635;SDS011;7917;50.818;6.972;2024-01-16T02:55:13;14.40;;;8.18;;
15635;SDS011;7917;50.818;6.972;2024-01-16T02:57:41;18.48;;;8.40;;
15635;SDS011;7917;50.818;6.972;2024-01-16T03:00:08;16.00;;;7.32;;
15635;SDS011;7917;50.818;6.972;2024-01-16T03:02:35;17.17;;;7.72;;
15635;SDS011;7917;50.818;6.972;2024-01-16T03:05:02;21.52;;;8.40;;
15635;SDS011;7917;50.818;6.972;2024-01-16T03:07:30;17.48;;;8.10;;
15635;SDS011;7917;50.818;6.972;2024-01-16T03:09:57;14.30;;;7.40;;
15635;SDS011;7917;50.818;6.972;2024-01-16T03:12:23;19.20;;;8.27;;
15635;SDS011;7917;50.818;6.972;2024-01-16T03:14:53;16.17;;;7.63;;
15635;SDS011;7917;50.818;6.972;2024-01-16T03:17:20;14.32;;;7.82;;
15635;SDS011;7917;50.818;6.972;2024-01-16T03:19:46;16.98;;;8.43;;
15635;SDS011;7917;50.818;6.972;2024-01-16T03:22:13;17.80;;;8.93;;
15635;SDS011;7917;50.818;6.972;2024-01-16T03:24:40;16.52;;;8.40;;
15635;SDS011;7917;50.818;6.972;2024-01-16T03:27:09;27.02;;;11.25;;
15635;SDS011;7917;50.818;6.972;2024-01-16T03:29:36;20.95;;;9.18;;
15635;SDS011;7917;50.818;6.972;2024-01-16T03:32:03;16.60;;;7.80;;
15635;SDS011;7917;50.818;6.972;2024-01-16T03:34:30;21.17;;;8.60;;
15635;SDS011;7917;50.818;6.972;2024-01-16T03:36:56;15.02;;;8.63;;
15635;SDS011;7917;50.818;6.972;2024-01-16T03:39:23;20.00;;;8.73;;
15635;SDS011;7917;50.818;6.972;2024-01-16T03:41:49;16.45;;;8.55;;
15635;SDS011;7917;50.818;6.972;2024-01-16T03:44:16;18.02;;;9.10;;
15635;SDS011;7917;50.818;6.972;2024-01-16T03:46:42;22.50;;;8.88;;
15635;SDS011;7917;50.818;6.972;2024-01-16T03:49:10;17.67;;;9.00;;
15635;SDS011;7917;50.818;6.972;2024-01-16T03:51:36;19.67;;;9.25;;
15635;SDS011;7917;50.818;6.972;2024-01-16T03:54:03;13.52;;;8.38;;
15635;SDS011;7917;50.818;6.972;2024-01-16T03:56:30;21.85;;;9.55;;
15635;SDS011;7917;50.818;6.972;2024-01-16T03:58:57;17.13;;;9.30;;
15635;SDS011;7917;50.818;6.972;2024-01-16T04:04:46;20.10;;;10.35;;
15635;SDS011;7917;50.818;6.972;2024-01-16T04:07:12;23.45;;;10.65;;
15635;SDS011;7917;50.818;6.972;2024-01-16T04:09:38;19.02;;;8.60;;
15635;SDS011;7917;50.818;6.972;2024-01-16T04:12:05;17.60;;;10.18;;
15635;SDS011;7917;50.818;6.972;2024-01-16T04:14:33;19.40;;;10.82;;
15635;SDS011;7917;50.818;6.972;2024-01-16T04:16:59;19.75;;;11.20;;
15635;SDS011;7917;50.818;6.972;2024-01-16T04:19:26;22.52;;;10.35;;
15635;SDS011;7917;50.818;6.972;2024-01-16T04:21:55;22.73;;;12.38;;
15635;SDS011;7917;50.818;6.972;2024-01-16T04:24:23;18.35;;;10.07;;
15635;SDS011;7917;50.818;6.972;2024-01-16T04:26:49;19.95;;;11.27;;
15635;SDS011;7917;50.818;6.972;2024-01-16T04:29:16;25.85;;;11.27;;
15635;SDS011;7917;50.818;6.972;2024-01-16T04:31:43;16.30;;;10.38;;
15635;SDS011;7917;50.818;6.972;2024-01-16T04:34:09;21.33;;;10.48;;
15635;SDS011;7917;50.818;6.972;2024-01-16T04:36:36;17.10;;;9.65;;
15635;SDS011;7917;50.818;6.972;2024-01-16T04:39:04;24.38;;;12.23;;
15635;SDS011;7917;50.818;6.972;2024-01-16T04:41:30;19.05;;;10.45;;
15635;SDS011;7917;50.818;6.972;2024-01-16T04:43:56;23.75;;;10.25;;
15635;SDS011;7917;50.818;6.972;2024-01-16T04:46:23;23.88;;;9.98;;
15635;SDS011;7917;50.818;6.972;2024-01-16T04:48:49;17.70;;;10.10;;
15635;SDS011;7917;50.818;6.972;2024-01-16T04:51:15;19.13;;;11.05;;
15635;SDS011;7917;50.818;6.972;2024-01-16T04:53:43;23.70;;;10.57;;
15635;SDS011;7917;50.818;6.972;2024-01-16T04:56:10;13.30;;;7.40;;
15635;SDS011;7917;50.818;6.972;2024-01-16T04:58:42;18.75;;;10.05;;
15635;SDS011;7917;50.818;6.972;2024-01-16T05:01:08;14.00;;;7.85;;
15635;SDS011;7917;50.818;6.972;2024-01-16T05:03:35;18.52;;;9.75;;
15635;SDS011;7917;50.818;6.972;2024-01-16T05:06:01;16.50;;;9.52;;
15635;SDS011;7917;50.818;6.972;2024-01-16T05:08:28;17.10;;;8.68;;
15635;SDS011;7917;50.818;6.972;2024-01-16T05:10:55;16.58;;;9.25;;
15635;SDS011;7917;50.818;6.972;2024-01-16T05:13:22;20.38;;;10.07;;
15635;SDS011;7917;50.818;6.972;2024-01-16T05:15:49;17.23;;;8.85;;
15635;SDS011;7917;50.818;6.972;2024-01-16T05:18:15;17.25;;;9.70;;
15635;SDS011;7917;50.818;6.972;2024-01-16T05:20:41;21.90;;;9.48;;
15635;SDS011;7917;50.818;6.972;2024-01-16T05:23:09;19.13;;;8.93;;
15635;SDS011;7917;50.818;6.972;2024-01-16T05:25:35;14.25;;;8.73;;
15635;SDS011;7917;50.818;6.972;2024-01-16T05:28:03;17.17;;;8.82;;
15635;SDS011;7917;50.818;6.972;2024-01-16T05:30:30;15.00;;;8.23;;
15635;SDS011;7917;50.818;6.972;2024-01-16T05:32:57;17.45;;;9.15;;
15635;SDS011;7917;50.818;6.972;2024-01-16T05:35:26;14.73;;;8.57;;
15635;SDS011;7917;50.818;6.972;2024-01-16T05:37:53;18.20;;;9.00;;
15635;SDS011;7917;50.818;6.972;2024-01-16T05:40:19;16.90;;;8.90;;
15635;SDS011;7917;50.818;6.972;2024-01-16T05:42:46;15.85;;;8.18;;
15635;SDS011;7917;50.818;6.972;2024-01-16T05:45:14;21.80;;;9.13;;
15635;SDS011;7917;50.818;6.972;2024-01-16T05:47:41;20.15;;;8.60;;
15635;SDS011;7917;50.818;6.972;2024-01-16T05:50:07;23.08;;;9.27;;
15635;SDS011;7917;50.818;6.972;2024-01-16T05:52:34;17.85;;;8.23;;
15635;SDS011;7917;50.818;6.972;2024-01-16T05:55:00;19.27;;;7.13;;
15635;SDS011;7917;50.818;6.972;2024-01-16T05:57:28;15.27;;;7.60;;
15635;SDS011;7917;50.818;6.972;2024-01-16T05:59:56;14.15;;;8.02;;
15635;SDS011;7917;50.818;6.972;2024-01-16T06:02:23;16.92;;;7.68;;
15635;SDS011;7917;50.818;6.972;2024-01-16T06:04:51;10.80;;;7.18;;
15635;SDS011;7917;50.818;6.972;2024-01-16T06:07:17;13.38;;;7.10;;
15635;SDS011;7917;50.818;6.972;2024-01-16T06:09:43;19.35;;;6.95;;
15635;SDS011;7917;50.818;6.972;2024-01-16T06:12:10;15.68;;;6.88;;
15635;SDS011;7917;50.818;6.972;2024-01-16T06:14:37;12.90;;;6.68;;
15635;SDS011;7917;50.818;6.972;2024-01-16T06:17:07;16.67;;;8.88;;
15635;SDS011;7917;50.818;6.972;2024-01-16T06:19:34;18.58;;;7.13;;
15635;SDS011;7917;50.818;6.972;2024-01-16T06:22:01;10.85;;;5.80;;
15635;SDS011;7917;50.818;6.972;2024-01-16T06:24:28;15.95;;;6.60;;
15635;SDS011;7917;50.818;6.972;2024-01-16T06:27:01;14.43;;;6.30;;
15635;SDS011;7917;50.818;6.972;2024-01-16T06:29:29;13.88;;;6.00;;
15635;SDS011;7917;50.818;6.972;2024-01-16T06:31:55;13.93;;;5.88;;
15635;SDS011;7917;50.818;6.972;2024-01-16T06:34:21;10.60;;;5.32;;
15635;SDS011;7917;50.818;6.972;2024-01-16T06:36:49;12.60;;;6.28;;
15635;SDS011;7917;50.818;6.972;2024-01-16T06:39:16;16.67;;;5.10;;
15635;SDS011;7917;50.818;6.972;2024-01-16T06:41:42;12.52;;;5.50;;
15635;SDS011;7917;50.818;6.972;2024-01-16T06:44:09;10.20;;;5.32;;
15635;SDS011;7917;50.818;6.972;2024-01-16T06:46:36;16.27;;;6.47;;
15635;SDS011;7917;50.818;6.972;2024-01-16T06:49:02;13.77;;;5.50;;
15635;SDS011;7917;50.818;6.972;2024-01-16T06:51:29;18.20;;;4.82;;
15635;SDS011;7917;50.818;6.972;2024-01-16T06:53:55;12.80;;;5.60;;
15635;SDS011;7917;50.818;6.972;2024-01-16T06:56:22;13.77;;;4.65;;
15635;SDS011;7917;50.818;6.972;2024-01-16T06:58:49;18.90;;;5.88;;
15635;SDS011;7917;50.818;6.972;2024-01-16T07:01:16;10.95;;;4.85;;
15635;SDS011;7917;50.818;6.972;2024-01-16T07:03:42;12.80;;;4.47;;
15635;SDS011;7917;50.818;6.972;2024-01-16T07:06:10;9.48;;;4.03;;
15635;SDS011;7917;50.818;6.972;2024-01-16T07:08:37;10.23;;;4.35;;
15635;SDS011;7917;50.818;6.972;2024-01-16T07:11:03;11.80;;;4.82;;
15635;SDS011;7917;50.818;6.972;2024-01-16T07:13:33;7.85;;;4.25;;
15635;SDS011;7917;50.818;6.972;2024-01-16T07:16:00;6.13;;;4.07;;
15635;SDS011;7917;50.818;6.972;2024-01-16T07:18:27;12.52;;;4.10;;
15635;SDS011;7917;50.818;6.972;2024-01-16T07:20:54;8.82;;;4.10;;
15635;SDS011;7917;50.818;6.972;2024-01-16T07:23:20;8.85;;;4.00;;
15635;SDS011;7917;50.818;6.972;2024-01-16T07:25:46;10.98;;;4.35;;
15635;SDS011;7917;50.818;6.972;2024-01-16T07:28:13;10.70;;;3.83;;
15635;SDS011;7917;50.818;6.972;2024-01-16T07:30:43;9.93;;;4.00;;
15635;SDS011;7917;50.818;6.972;2024-01-16T07:33:10;7.75;;;3.70;;
15635;SDS011;7917;50.818;6.972;2024-01-16T07:35:38;10.93;;;3.97;;
15635;SDS011;7917;50.818;6.972;2024-01-16T07:38:06;9.27;;;3.45;;
15635;SDS011;7917;50.818;6.972;2024-01-16T07:40:32;10.02;;;3.63;;
15635;SDS011;7917;50.818;6.972;2024-01-16T07:42:59;10.90;;;3.40;;
15635;SDS011;7917;50.818;6.972;2024-01-16T07:45:25;8.30;;;3.47;;
15635;SDS011;7917;50.818;6.972;2024-01-16T07:47:52;12.85;;;3.72;;
15635;SDS011;7917;50.818;6.972;2024-01-16T07:50:19;7.63;;;3.38;;
15635;SDS011;7917;50.818;6.972;2024-01-16T07:52:45;9.10;;;3.60;;
15635;SDS011;7917;50.818;6.972;2024-01-16T07:55:12;13.85;;;4.32;;
15635;SDS011;7917;50.818;6.972;2024-01-16T07:57:39;10.55;;;3.88;;
15635;SDS011;7917;50.818;6.972;2024-01-16T08:00:06;9.20;;;3.92;;
15635;SDS011;7917;50.818;6.972;2024-01-16T08:02:37;11.50;;;3.55;;
15635;SDS011;7917;50.818;6.972;2024-01-16T08:05:06;7.97;;;3.40;;
15635;SDS011;7917;50.818;6.972;2024-01-16T08:07:32;7.38;;;3.42;;
15635;SDS011;7917;50.818;6.972;2024-01-16T08:10:00;8.95;;;3.33;;
15635;SDS011;7917;50.818;6.972;2024-01-16T08:12:26;9.90;;;3.17;;
15635;SDS011;7917;50.818;6.972;2024-01-16T08:14:53;12.93;;;3.08;;
15635;SDS011;7917;50.818;6.972;2024-01-16T08:17:21;9.10;;;3.15;;
15635;SDS011;7917;50.818;6.972;2024-01-16T08:19:47;8.40;;;3.72;;
15635;SDS011;7917;50.818;6.972;2024-01-16T08:22:15;10.30;;;3.30;;
15635;SDS011;7917;50.818;6.972;2024-01-16T08:24:41;11.23;;;3.65;;
15635;SDS011;7917;50.818;6.972;2024-01-16T08:27:08;13.60;;;3.33;;
15635;SDS011;7917;50.818;6.972;2024-01-16T08:29:35;10.07;;;2.72;;
15635;SDS011;7917;50.818;6.972;2024-01-16T08:32:02;10.55;;;4.05;;
15635;SDS011;7917;50.818;6.972;2024-01-16T08:34:29;8.43;;;3.22;;
15635;SDS011;7917;50.818;6.972;2024-01-16T08:36:55;4.97;;;2.63;;
15635;SDS011;7917;50.818;6.972;2024-01-16T08:39:23;7.05;;;2.45;;
15635;SDS011;7917;50.818;6.972;2024-01-16T08:41:49;8.95;;;3.13;;
15635;SDS011;7917;50.818;6.972;2024-01-16T08:44:16;14.07;;;2.95;;
15635;SDS011;7917;50.818;6.972;2024-01-16T08:46:43;7.90;;;2.55;;
15635;SDS011;7917;50.818;6.972;2024-01-16T08:49:09;16.08;;;3.08;;
15635;SDS011;7917;50.818;6.972;2024-01-16T08:51:37;7.78;;;2.90;;
15635;SDS011;7917;50.818;6.972;2024-01-16T08:54:04;11.88;;;3.30;;
15635;SDS011;7917;50.818;6.972;2024-01-16T08:56:33;8.25;;;3.30;;
15635;SDS011;7917;50.818;6.972;2024-01-16T08:58:59;7.60;;;3.00;;
15635;SDS011;7917;50.818;6.972;2024-01-16T09:01:26;7.82;;;2.95;;
15635;SDS011;7917;50.818;6.972;2024-01-16T09:03:53;10.48;;;3.20;;
15635;SDS011;7917;50.818;6.972;2024-01-16T09:06:20;11.65;;;3.22;;
15635;SDS011;7917;50.818;6.972;2024-01-16T09:08:47;6.97;;;3.22;;
15635;SDS011;7917;50.818;6.972;2024-01-16T09:11:13;7.05;;;3.05;;
15635;SDS011;7917;50.818;6.972;2024-01-16T09:13:40;7.18;;;3.17;;
15635;SDS011;7917;50.818;6.972;2024-01-16T09:16:07;11.73;;;3.97;;
15635;SDS011;7917;50.818;6.972;2024-01-16T09:18:35;10.98;;;3.58;;
15635;SDS011;7917;50.818;6.972;2024-01-16T09:21:04;8.50;;;3.53;;
15635;SDS011;7917;50.818;6.972;2024-01-16T09:23:31;8.90;;;3.40;;
15635;SDS011;7917;50.818;6.972;2024-01-16T09:25:59;10.18;;;4.45;;
15635;SDS011;7917;50.818;6.972;2024-01-16T09:28:25;9.00;;;3.67;;
15635;SDS011;7917;50.818;6.972;2024-01-16T09:30:56;7.55;;;3.22;;
15635;SDS011;7917;50.818;6.972;2024-01-16T09:33:23;11.35;;;4.68;;
15635;SDS011;7917;50.818;6.972;2024-01-16T09:35:50;11.55;;;5.78;;
15635;SDS011;7917;50.818;6.972;2024-01-16T09:38:17;12.27;;;4.88;;
15635;SDS011;7917;50.818;6.972;2024-01-16T09:40:45;9.77;;;3.58;;
15635;SDS011;7917;50.818;6.972;2024-01-16T09:43:15;7.97;;;3.88;;
15635;SDS011;7917;50.818;6.972;2024-01-16T09:45:42;10.63;;;4.70;;
15635;SDS011;7917;50.818;6.972;2024-01-16T09:48:10;13.02;;;4.22;;
15635;SDS011;7917;50.818;6.972;2024-01-16T09:50:39;11.73;;;5.47;;
15635;SDS011;7917;50.818;6.972;2024-01-16T09:53:05;8.35;;;3.85;;
15635;SDS011;7917;50.818;6.972;2024-01-16T09:55:32;10.60;;;5.22;;
15635;SDS011;7917;50.818;6.972;2024-01-16T09:57:59;11.10;;;4.50;;
15635;SDS011;7917;50.818;6.972;2024-01-16T10:00:26;7.25;;;3.72;;
15635;SDS011;7917;50.818;6.972;2024-01-16T10:02:57;8.98;;;3.33;;
15635;SDS011;7917;50.818;6.972;2024-01-16T10:05:27;11.50;;;3.95;;
15635;SDS011;7917;50.818;6.972;2024-01-16T10:07:56;9.05;;;4.25;;
15635;SDS011;7917;50.818;6.972;2024-01-16T10:10:24;9.60;;;3.88;;
15635;SDS011;7917;50.818;6.972;2024-01-16T10:12:56;11.48;;;4.75;;
15635;SDS011;7917;50.818;6.972;2024-01-16T10:15:23;7.97;;;3.15;;
15635;SDS011;7917;50.818;6.972;2024-01-16T10:17:50;7.78;;;3.42;;
15635;SDS011;7917;50.818;6.972;2024-01-16T10:20:31;9.68;;;4.13;;
15635;SDS011;7917;50.818;6.972;2024-01-16T10:23:02;10.38;;;3.83;;
15635;SDS011;7917;50.818;6.972;2024-01-16T10:25:29;10.60;;;3.92;;
15635;SDS011;7917;50.818;6.972;2024-01-16T10:28:06;9.00;;;3.70;;
15635;SDS011;7917;50.818;6.972;2024-01-16T10:30:35;9.50;;;3.67;;
15635;SDS011;7917;50.818;6.972;2024-01-16T10:33:14;9.10;;;3.33;;
15635;SDS011;7917;50.818;6.972;2024-01-16T10:35:42;11.98;;;3.45;;
15635;SDS011;7917;50.818;6.972;2024-01-16T10:38:08;8.35;;;3.15;;
15635;SDS011;7917;50.818;6.972;2024-01-16T10:40:36;10.20;;;3.47;;
15635;SDS011;7917;50.818;6.972;2024-01-16T10:43:03;12.25;;;2.90;;
15635;SDS011;7917;50.818;6.972;2024-01-16T10:45:30;9.55;;;3.15;;
15635;SDS011;7917;50.818;6.972;2024-01-16T10:48:01;10.13;;;3.80;;
15635;SDS011;7917;50.818;6.972;2024-01-16T10:50:28;6.65;;;3.70;;
15635;SDS011;7917;50.818;6.972;2024-01-16T10:52:56;5.70;;;3.10;;
15635;SDS011;7917;50.818;6.972;2024-01-16T10:55:25;6.82;;;3.28;;
15635;SDS011;7917;50.818;6.972;2024-01-16T10:57:56;5.63;;;2.95;;
15635;SDS011;7917;50.818;6.972;2024-01-16T11:00:24;10.35;;;3.47;;
15635;SDS011;7917;50.818;6.972;2024-01-16T11:02:52;10.65;;;3.38;;
15635;SDS011;7917;50.818;6.972;2024-01-16T11:05:26;9.05;;;3.63;;
15635;SDS011;7917;50.818;6.972;2024-01-16T11:07:57;10.98;;;2.97;;
15635;SDS011;7917;50.818;6.972;2024-01-16T11:10:26;8.63;;;3.33;;
15635;SDS011;7917;50.818;6.972;2024-01-16T11:12:54;9.63;;;3.22;;
15635;SDS011;7917;50.818;6.972;2024-01-16T11:15:25;9.25;;;3.42;;
15635;SDS011;7917;50.818;6.972;2024-01-16T11:17:55;7.28;;;3.40;;
15635;SDS011;7917;50.818;6.972;2024-01-16T11:20:22;8.85;;;3.50;;
15635;SDS011;7917;50.818;6.972;2024-01-16T11:22:50;6.70;;;3.35;;
15635;SDS011;7917;50.818;6.972;2024-01-16T11:25:20;13.07;;;3.95;;
15635;SDS011;7917;50.818;6.972;2024-01-16T11:27:57;10.60;;;3.47;;
15635;SDS011;7917;50.818;6.972;2024-01-16T11:30:34;11.35;;;3.45;;
15635;SDS011;7917;50.818;6.972;2024-01-16T11:33:01;8.52;;;3.72;;
15635;SDS011;7917;50.818;6.972;2024-01-16T11:35:34;13.27;;;4.25;;
15635;SDS011;7917;50.818;6.972;2024-01-16T11:38:06;10.75;;;3.05;;
15635;SDS011;7917;50.818;6.972;2024-01-16T11:40:35;7.40;;;3.10;;
15635;SDS011;7917;50.818;6.972;2024-01-16T11:46:02;8.98;;;2.65;;
15635;SDS011;7917;50.818;6.972;2024-01-16T11:48:30;7.88;;;2.50;;
15635;SDS011;7917;50.818;6.972;2024-01-16T11:50:56;7.38;;;2.30;;
15635;SDS011;7917;50.818;6.972;2024-01-16T11:53:35;9.45;;;2.63;;
15635;SDS011;7917;50.818;6.972;2024-01-16T11:59:08;6.55;;;2.47;;
15635;SDS011;7917;50.818;6.972;2024-01-16T12:01:50;3.03;;;2.05;;
15635;SDS011;7917;50.818;6.972;2024-01-16T12:04:23;9.98;;;2.63;;
15635;SDS011;7917;50.818;6.972;2024-01-16T12:06:56;3.92;;;2.35;;
15635;SDS011;7917;50.818;6.972;2024-01-16T12:09:25;9.38;;;2.65;;
15635;SDS011;7917;50.818;6.972;2024-01-16T12:11:56;9.00;;;2.67;;
15635;SDS011;7917;50.818;6.972;2024-01-16T12:14:23;3.92;;;2.28;;
15635;SDS011;7917;50.818;6.972;2024-01-16T12:16:50;7.63;;;2.55;;
15635;SDS011;7917;50.818;6.972;2024-01-16T12:19:17;9.10;;;2.55;;
15635;SDS011;7917;50.818;6.972;2024-01-16T12:21:53;8.63;;;2.90;;
15635;SDS011;7917;50.818;6.972;2024-01-16T12:24:20;5.43;;;2.45;;
15635;SDS011;7917;50.818;6.972;2024-01-16T12:26:46;10.02;;;2.70;;
15635;SDS011;7917;50.818;6.972;2024-01-16T12:29:14;8.00;;;2.63;;
15635;SDS011;7917;50.818;6.972;2024-01-16T12:31:50;8.93;;;3.00;;
15635;SDS011;7917;50.818;6.972;2024-01-16T12:34:30;8.75;;;2.60;;
15635;SDS011;7917;50.818;6.972;2024-01-16T12:37:03;7.78;;;2.63;;
15635;SDS011;7917;50.818;6.972;2024-01-16T12:39:31;11.82;;;3.58;;
15635;SDS011;7917;50.818;6.972;2024-01-16T12:41:58;9.73;;;2.90;;
15635;SDS011;7917;50.818;6.972;2024-01-16T12:44:27;5.70;;;3.00;;
15635;SDS011;7917;50.818;6.972;2024-01-16T12:46:54;6.80;;;3.10;;
15635;SDS011;7917;50.818;6.972;2024-01-16T12:49:21;10.15;;;3.40;;
15635;SDS011;7917;50.818;6.972;2024-01-16T12:51:48;7.80;;;3.30;;
15635;SDS011;7917;50.818;6.972;2024-01-16T12:54:15;7.75;;;2.65;;
15635;SDS011;7917;50.818;6.972;2024-01-16T12:56:44;8.35;;;3.47;;
15635;SDS011;7917;50.818;6.972;2024-01-16T12:59:11;10.13;;;3.35;;
15635;SDS011;7917;50.818;6.972;2024-01-16T13:01:40;5.88;;;3.00;;
15635;SDS011;7917;50.818;6.972;2024-01-16T13:04:08;6.35;;;3.38;;
15635;SDS011;7917;50.818;6.972;2024-01-16T13:06:35;8.57;;;3.72;;
15635;SDS011;7917;50.818;6.972;2024-01-16T13:09:06;6.28;;;2.45;;
15635;SDS011;7917;50.818;6.972;2024-01-16T13:11:44;8.43;;;2.50;;
15635;SDS011;7917;50.818;6.972;2024-01-16T13:14:15;5.28;;;3.13;;
15635;SDS011;7917;50.818;6.972;2024-01-16T13:16:42;9.50;;;3.25;;
15635;SDS011;7917;50.818;6.972;2024-01-16T13:19:09;8.68;;;3.83;;
15635;SDS011;7917;50.818;6.972;2024-01-16T13:21:36;11.68;;;3.58;;
15635;SDS011;7917;50.818;6.972;2024-01-16T13:24:03;8.77;;;3.10;;
15635;SDS011;7917;50.818;6.972;2024-01-16T13:26:30;9.20;;;2.88;;
15635;SDS011;7917;50.818;6.972;2024-01-16T13:28:57;6.85;;;2.85;;
15635;SDS011;7917;50.818;6.972;2024-01-16T13:31:24;6.53;;;2.92;;
15635;SDS011;7917;50.818;6.972;2024-01-16T13:33:52;10.00;;;2.95;;
15635;SDS011;7917;50.818;6.972;2024-01-16T13:36:21;6.72;;;3.17;;
15635;SDS011;7917;50.818;6.972;2024-01-16T13:38:48;6.57;;;3.85;;
15635;SDS011;7917;50.818;6.972;2024-01-16T13:41:15;7.05;;;2.88;;
15635;SDS011;7917;50.818;6.972;2024-01-16T13:43:41;10.65;;;2.92;;
15635;SDS011;7917;50.818;6.972;2024-01-16T13:46:08;8.98;;;3.13;;
15635;SDS011;7917;50.818;6.972;2024-01-16T13:48:35;5.40;;;3.00;;
15635;SDS011;7917;50.818;6.972;2024-01-16T13:51:03;5.90;;;3.30;;
15635;SDS011;7917;50.818;6.972;2024-01-16T13:53:30;8.38;;;2.72;;
15635;SDS011;7917;50.818;6.972;2024-01-16T13:55:57;7.60;;;3.25;;
15635;SDS011;7917;50.818;6.972;2024-01-16T13:58:23;9.30;;;3.10;;
15635;SDS011;7917;50.818;6.972;2024-01-16T14:00:50;10.00;;;3.40;;
15635;SDS011;7917;50.818;6.972;2024-01-16T14:03:17;8.60;;;3.08;;
15635;SDS011;7917;50.818;6.972;2024-01-16T14:05:45;7.32;;;3.45;;
15635;SDS011;7917;50.818;6.972;2024-01-16T14:08:13;5.43;;;3.50;;
15635;SDS011;7917;50.818;6.972;2024-01-16T14:10:39;8.38;;;3.25;;
15635;SDS011;7917;50.818;6.972;2024-01-16T14:13:06;8.65;;;3.33;;
15635;SDS011;7917;50.818;6.972;2024-01-16T14:15:33;7.95;;;3.65;;
15635;SDS011;7917;50.818;6.972;2024-01-16T14:18:01;9.95;;;4.30;;
15635;SDS011;7917;50.818;6.972;2024-01-16T14:20:28;7.88;;;3.63;;
15635;SDS011;7917;50.818;6.972;2024-01-16T14:22:57;8.43;;;4.30;;
15635;SDS011;7917;50.818;6.972;2024-01-16T14:25:25;8.30;;;4.28;;
15635;SDS011;7917;50.818;6.972;2024-01-16T14:27:56;8.88;;;3.75;;
15635;SDS011;7917;50.818;6.972;2024-01-16T14:30:23;8.50;;;3.67;;
15635;SDS011;7917;50.818;6.972;2024-01-16T14:32:51;9.27;;;4.47;;
15635;SDS011;7917;50.818;6.972;2024-01-16T14:35:17;11.77;;;3.50;;
15635;SDS011;7917;50.818;6.972;2024-01-16T14:37:45;10.77;;;4.55;;
15635;SDS011;7917;50.818;6.972;2024-01-16T14:40:12;6.65;;;3.53;;
15635;SDS011;7917;50.818;6.972;2024-01-16T14:42:42;13.55;;;4.00;;
15635;SDS011;7917;50.818;6.972;2024-01-16T14:45:12;10.50;;;4.53;;
15635;SDS011;7917;50.818;6.972;2024-01-16T14:47:40;11.00;;;3.67;;
15635;SDS011;7917;50.818;6.972;2024-01-16T14:50:08;6.18;;;3.60;;
15635;SDS011;7917;50.818;6.972;2024-01-16T14:52:35;9.82;;;4.03;;
15635;SDS011;7917;50.818;6.972;2024-01-16T14:55:02;11.38;;;4.38;;
15635;SDS011;7917;50.818;6.972;2024-01-16T14:57:30;9.73;;;3.97;;
15635;SDS011;7917;50.818;6.972;2024-01-16T14:59:58;5.95;;;3.85;;
15635;SDS011;7917;50.818;6.972;2024-01-16T15:02:27;7.28;;;4.03;;
15635;SDS011;7917;50.818;6.972;2024-01-16T15:04:54;9.45;;;4.18;;